Urbana, IL (61801)

11:47 AM CDT on April 25, 2015 (GMT -0500)
METCAD 9-1-1: East Urbana - Champaign County, Illinois | | Change Station
CLOSE
Current Station
Personal Weather Station
Location: Urbana, IL
Elevation: 732 ft
Nearby Weather Stations

Elev 732 ft 40.11 °N, 88.18 °W | Updated 13 minutes ago

Rain
Rain
49.2 °F
Feels Like 49 °F
N
3.0
Wind Variable Wind from North
Gusts 6.0 mph

Today
High -- | Low -- °F
--% Chance of Precip.
Yesterday
High -- | Low -- °F
Precip. -- in
6:00 AM 7:41 PM
Waxing Crescent, 47% visible
Pressure 29.64 in
Visibility 1.0 miles
Clouds Mostly Cloudy 400 ft
Mostly Cloudy 900 ft
Overcast 2100 ft
Windchill 49 °F
Dew Point 48 °F
Humidity 94%
Rainfall 0.22 in
Snow Depth Not available.
UV 3 out of 12
Pollen 10.00 out of 12
Air Quality Not available.
Flu Activity Regional
SPECI KCMI 251641Z 04012KT 1SM R32R/2400V4500FT +TSRA BR BKN004 BKN009 OVC021 09/09 A2964 RMK AO2 LTG DSNT E AND S AND NW TSB14 P0039 T00940089

More Conditions Fewer Conditions

Pressure 29.64 in
Visibility 1.0 miles
Clouds Mostly Cloudy 400 ft
Mostly Cloudy 900 ft
Overcast 2100 ft
Windchill 49 °F
Dew Point 48 °F
Humidity 94%
Rainfall 0.22 in
Snow Depth Not available.
UV 3 out of 12
Pollen 10.00 out of 12
Air Quality Not available.
Flu Activity Regional
SPECI KCMI 251641Z 04012KT 1SM R32R/2400V4500FT +TSRA BR BKN004 BKN009 OVC021 09/09 A2964 RMK AO2 LTG DSNT E AND S AND NW TSB14 P0039 T00940089

More Conditions Fewer Conditions

10-Day Weather Forecast

Almanac

Astronomy

Apr. 25, 2015 Rise Set
Actual Time
Civil Twilight
Nautical Twilight
Astronomical Twilight
Moon
Length of Visible Light
Length of Day
Tomorrow will be .
, % of the Moon is Illuminated

Today's Extremes

State Highs State Lows

Community

WunderPhotos

Upload Photos

1,816,737 photos uploaded!

WunderBlogs® & News

Nearby

Air Quality

  Air Quality AQ Index Pollutant
Not available.

Snow Depth

Station Depth Elevation

Earthquake Activity

City Distance Mag. Time & Date
Minimum magnitude displayed is 2.5.

Coastal Water Temperatures

Place Temperature

Stations

Nearby Weather Stations

Station Location Temp. Windchill Dew Point Humidity Wind Precip. Elev Updated Type